Time;durP1;ratioP1;P1;durP2;ratioP2;P2;SDS_P1;SDS_P2;PMS_P1;PMS_P2;Temp;Humidity;BMP_temperature;BMP_pressure;BME280_temperature;BME280_humidity;BME280_pressure;Samples;Min_cycle;Max_cycle;Signal;HPM_P1;HPM_P2
2022/05/03 00:00:19;;;;;;;38.03;6.38;;;;;;;;;;4983685;28;20038;-59
2022/05/03 00:02:46;;;;;;;29.38;6.55;;;;;;;;;;4983861;28;20109;-59
2022/05/03 00:05:21;;;;;;;49.45;8.05;;;;;;;;;;4986155;28;20038;-59
2022/05/03 00:07:51;;;;;;;42.70;6.53;;;;;;;;;;4985238;28;20485;-60
2022/05/03 00:10:22;;;;;;;40.38;6.72;;;;;;;;;;4989811;28;20581;-60
2022/05/03 00:12:55;;;;;;;35.75;7.35;;;;;;;;;;4996081;28;20744;-59
2022/05/03 00:15:24;;;;;;;37.90;6.97;;;;;;;;;;4995872;28;20030;-59
2022/05/03 00:17:52;;;;;;;37.00;8.43;;;;;;;;;;4980884;28;20049;-59
2022/05/03 00:20:19;;;;;;;37.47;9.00;;;;;;;;;;4992850;28;20038;-57
2022/05/03 00:22:46;;;;;;;36.58;12.20;;;;;;;;;;4993859;28;20495;-58
2022/05/03 00:25:13;;;;;;;46.35;21.27;;;;;;;;;;4989001;28;20046;-58
2022/05/03 00:27:41;;;;;;;64.53;28.73;;;;;;;;;;4978157;28;20027;-59
2022/05/03 00:30:08;;;;;;;63.53;34.40;;;;;;;;;;4984790;28;20034;-59
2022/05/03 00:32:35;;;;;;;73.78;42.38;;;;;;;;;;4985713;28;20056;-59
2022/05/03 00:35:03;;;;;;;77.15;44.60;;;;;;;;;;5023531;28;20037;-58
2022/05/03 00:37:30;;;;;;;74.32;44.45;;;;;;;;;;5014579;28;20026;-58
2022/05/03 00:39:57;;;;;;;74.68;49.17;;;;;;;;;;5017085;28;20053;-59
2022/05/03 00:42:34;;;;;;;82.82;47.83;;;;;;;;;;5023489;28;20029;-58
2022/05/03 00:45:07;;;;;;;81.13;45.03;;;;;;;;;;5022121;28;20034;-59
2022/05/03 00:47:54;;;;;;;87.85;47.35;;;;;;;;;;5015182;28;20036;-58
2022/05/03 00:50:21;;;;;;;99.63;53.58;;;;;;;;;;5015992;28;20141;-58
2022/05/03 00:53:06;;;;;;;103.45;55.72;;;;;;;;;;5016989;28;20030;-58
2022/05/03 00:55:34;;;;;;;105.85;56.90;;;;;;;;;;5028287;28;20033;-59
2022/05/03 00:58:24;;;;;;;117.22;56.45;;;;;;;;;;5021192;28;20026;-57
2022/05/03 01:01:11;;;;;;;105.68;53.53;;;;;;;;;;5016642;28;20086;-58
2022/05/03 01:03:50;;;;;;;114.40;55.72;;;;;;;;;;5033300;28;20036;-59
2022/05/03 01:06:23;;;;;;;87.93;52.40;;;;;;;;;;5033334;28;20037;-59
2022/05/03 01:09:12;;;;;;;93.97;51.55;;;;;;;;;;5033606;28;20460;-59
2022/05/03 01:11:59;;;;;;;104.53;51.47;;;;;;;;;;5033599;28;20033;-59
2022/05/03 01:14:45;;;;;;;92.68;47.65;;;;;;;;;;5031140;28;20450;-59
2022/05/03 01:17:32;;;;;;;96.57;46.97;;;;;;;;;;5018543;28;20030;-57
2022/05/03 01:20:06;;;;;;;89.07;47.90;;;;;;;;;;4980981;28;20038;-58
2022/05/03 01:22:36;;;;;;;92.07;46.85;;;;;;;;;;5019198;28;20488;-58
2022/05/03 01:25:21;;;;;;;86.50;43.95;;;;;;;;;;5021373;28;20532;-58
2022/05/03 01:27:53;;;;;;;94.10;46.47;;;;;;;;;;5019709;28;20018;-59
2022/05/03 01:30:20;;;;;;;82.22;43.15;;;;;;;;;;4996202;28;20026;-59
2022/05/03 01:32:48;;;;;;;90.57;42.95;;;;;;;;;;5013387;28;20041;-58
2022/05/03 01:35:15;;;;;;;77.25;41.50;;;;;;;;;;5020890;28;20033;-58
2022/05/03 01:37:52;;;;;;;81.90;41.10;;;;;;;;;;5023491;28;20039;-57
2022/05/03 01:40:22;;;;;;;77.40;40.20;;;;;;;;;;5022910;28;20036;-58
2022/05/03 01:43:07;;;;;;;69.45;38.80;;;;;;;;;;5019821;28;20109;-60
2022/05/03 01:45:43;;;;;;;66.03;37.47;;;;;;;;;;5017895;28;20046;-58
2022/05/03 01:50:18;;;;;;;69.10;38.13;;;;;;;;;;5017967;28;20473;-59
2022/05/03 01:51:20;;;;;;;69.30;36.47;;;;;;;;;;5020024;28;20052;-58
2022/05/03 01:53:51;;;;;;;66.85;36.05;;;;;;;;;;5019796;28;20072;-56
2022/05/03 01:56:21;;;;;;;64.32;36.70;;;;;;;;;;5015676;28;20072;-57
2022/05/03 01:59:06;;;;;;;64.30;35.75;;;;;;;;;;5017400;28;20117;-54
2022/05/03 02:01:41;;;;;;;78.68;36.85;;;;;;;;;;5022230;28;20033;-55
2022/05/03 02:04:13;;;;;;;69.82;35.30;;;;;;;;;;5033594;28;20087;-56
2022/05/03 02:06:40;;;;;;;67.30;34.95;;;;;;;;;;5032676;28;20033;-57
2022/05/03 02:09:08;;;;;;;64.00;35.17;;;;;;;;;;5033295;28;20549;-56
2022/05/03 02:11:46;;;;;;;59.70;34.90;;;;;;;;;;5032131;28;20033;-53
2022/05/03 02:17:01;;;;;;;62.03;32.55;;;;;;;;;;5033539;28;20043;-57
2022/05/03 02:19:34;;;;;;;62.75;33.00;;;;;;;;;;5033087;28;20531;-57
2022/05/03 02:22:16;;;;;;;69.40;32.40;;;;;;;;;;5033134;28;20541;-57
2022/05/03 02:25:12;;;;;;;62.67;31.30;;;;;;;;;;5032978;28;20048;-57
2022/05/03 02:27:43;;;;;;;57.92;30.58;;;;;;;;;;5012642;28;20049;-57
2022/05/03 02:30:11;;;;;;;60.55;30.02;;;;;;;;;;5015140;28;20095;-57
2022/05/03 02:32:56;;;;;;;69.15;31.55;;;;;;;;;;5032919;28;20503;-56
2022/05/03 02:35:27;;;;;;;80.47;30.23;;;;;;;;;;5032575;28;20040;-57
2022/05/03 02:37:56;;;;;;;55.67;28.40;;;;;;;;;;5032801;28;20510;-55
2022/05/03 02:40:27;;;;;;;65.38;29.38;;;;;;;;;;5014877;28;20080;-57
2022/05/03 02:42:56;;;;;;;62.00;28.88;;;;;;;;;;5032715;28;20037;-57
2022/05/03 02:45:23;;;;;;;58.30;28.27;;;;;;;;;;5032489;28;20033;-57
2022/05/03 02:47:53;;;;;;;56.55;27.58;;;;;;;;;;5032561;28;20070;-56
2022/05/03 02:50:29;;;;;;;64.30;28.15;;;;;;;;;;5032681;28;20483;-55
2022/05/03 02:53:09;;;;;;;58.65;27.48;;;;;;;;;;5032694;28;20132;-57
2022/05/03 02:55:50;;;;;;;55.83;28.02;;;;;;;;;;5032619;28;20030;-55
2022/05/03 02:58:39;;;;;;;51.17;27.40;;;;;;;;;;5032514;28;20040;-57
2022/05/03 03:04:04;;;;;;;49.50;25.38;;;;;;;;;;5032584;28;20041;-56
2022/05/03 03:06:32;;;;;;;50.13;25.88;;;;;;;;;;5032233;28;20053;-56
2022/05/03 03:09:00;;;;;;;48.00;27.67;;;;;;;;;;5032486;28;20120;-56
2022/05/03 03:11:33;;;;;;;49.53;25.38;;;;;;;;;;5032024;28;20101;-55
2022/05/03 03:14:19;;;;;;;50.22;26.27;;;;;;;;;;5032331;28;20406;-56
2022/05/03 03:17:06;;;;;;;45.47;24.70;;;;;;;;;;5032237;28;20034;-56
2022/05/03 03:19:51;;;;;;;52.97;25.98;;;;;;;;;;5032372;28;20156;-56
2022/05/03 03:22:21;;;;;;;43.47;24.88;;;;;;;;;;5032530;28;20072;-56
2022/05/03 03:24:52;;;;;;;43.08;24.15;;;;;;;;;;5032339;28;20387;-57
2022/05/03 03:27:21;;;;;;;46.50;24.33;;;;;;;;;;5032307;28;20419;-57
2022/05/03 03:29:49;;;;;;;38.70;23.85;;;;;;;;;;5032482;28;20471;-55
2022/05/03 03:32:17;;;;;;;39.60;24.30;;;;;;;;;;5032288;28;20431;-57
2022/05/03 03:34:48;;;;;;;45.70;24.60;;;;;;;;;;5032222;28;20446;-56
2022/05/03 03:37:16;;;;;;;43.95;22.75;;;;;;;;;;5032470;28;20394;-56
2022/05/03 03:39:43;;;;;;;43.47;22.73;;;;;;;;;;5014584;28;20103;-56
2022/05/03 03:42:10;;;;;;;37.13;22.10;;;;;;;;;;5032409;28;20476;-54
2022/05/03 03:44:37;;;;;;;33.85;22.10;;;;;;;;;;5032311;28;20025;-57
2022/05/03 03:47:04;;;;;;;35.15;20.98;;;;;;;;;;5032309;28;20119;-56
2022/05/03 03:49:31;;;;;;;38.60;21.50;;;;;;;;;;5032019;28;20037;-56
2022/05/03 03:51:59;;;;;;;40.22;21.80;;;;;;;;;;5032303;28;20478;-57
2022/05/03 03:54:26;;;;;;;35.63;21.15;;;;;;;;;;5032297;28;20026;-57
2022/05/03 03:56:54;;;;;;;34.20;20.38;;;;;;;;;;5031618;28;20076;-55
2022/05/03 03:59:22;;;;;;;40.00;20.17;;;;;;;;;;5032088;28;20029;-56
2022/05/03 04:01:49;;;;;;;37.85;20.88;;;;;;;;;;5032097;28;20121;-57
2022/05/03 04:04:19;;;;;;;36.83;19.92;;;;;;;;;;5032144;28;20071;-57
2022/05/03 04:06:46;;;;;;;35.38;20.15;;;;;;;;;;5032078;28;20105;-57
2022/05/03 04:09:13;;;;;;;39.50;21.67;;;;;;;;;;5031917;28;20029;-56
2022/05/03 04:11:47;;;;;;;34.00;19.17;;;;;;;;;;5032050;28;20498;-57
2022/05/03 04:14:15;;;;;;;32.40;19.48;;;;;;;;;;5031893;28;20391;-57
2022/05/03 04:16:43;;;;;;;33.10;19.42;;;;;;;;;;5032093;28;20420;-52
2022/05/03 04:19:11;;;;;;;33.75;19.83;;;;;;;;;;5014113;28;20114;-57
2022/05/03 04:21:38;;;;;;;31.50;18.60;;;;;;;;;;5031797;28;20035;-55
2022/05/03 04:24:05;;;;;;;30.17;17.98;;;;;;;;;;5032013;28;20029;-56
2022/05/03 04:26:32;;;;;;;34.08;18.23;;;;;;;;;;5031874;28;20087;-56
2022/05/03 04:29:00;;;;;;;26.42;16.67;;;;;;;;;;5031854;28;20454;-56
2022/05/03 04:31:28;;;;;;;26.35;17.25;;;;;;;;;;5031901;28;20037;-57
2022/05/03 04:33:55;;;;;;;28.50;17.05;;;;;;;;;;5013706;28;20495;-56
2022/05/03 04:36:22;;;;;;;24.55;16.08;;;;;;;;;;5015618;28;20029;-55
2022/05/03 04:38:50;;;;;;;24.92;16.17;;;;;;;;;;5015378;28;20065;-57
2022/05/03 04:41:17;;;;;;;25.20;16.15;;;;;;;;;;5015330;28;20033;-57
2022/05/03 04:43:44;;;;;;;26.13;15.80;;;;;;;;;;5015320;28;20116;-56
2022/05/03 04:46:11;;;;;;;26.05;15.98;;;;;;;;;;5015280;28;20034;-54
2022/05/03 04:48:38;;;;;;;28.02;15.52;;;;;;;;;;5015352;28;20496;-56
2022/05/03 04:51:05;;;;;;;22.88;14.85;;;;;;;;;;5015313;28;20488;-57
2022/05/03 04:53:32;;;;;;;24.40;14.65;;;;;;;;;;5015330;28;20022;-57
2022/05/03 04:56:00;;;;;;;23.17;14.68;;;;;;;;;;5015115;28;20041;-57
2022/05/03 04:58:27;;;;;;;23.60;14.60;;;;;;;;;;5015265;28;20503;-56
2022/05/03 05:00:54;;;;;;;23.20;14.52;;;;;;;;;;5015136;28;20025;-57
2022/05/03 05:03:21;;;;;;;25.33;15.18;;;;;;;;;;5015122;28;20018;-56
2022/05/03 05:05:48;;;;;;;23.77;14.45;;;;;;;;;;5015003;28;20514;-56
2022/05/03 05:08:15;;;;;;;25.48;14.02;;;;;;;;;;5015063;28;20125;-56
2022/05/03 05:10:42;;;;;;;20.52;14.35;;;;;;;;;;5014958;28;20483;-54
2022/05/03 05:13:09;;;;;;;20.00;13.45;;;;;;;;;;5014988;28;20606;-57
2022/05/03 05:15:36;;;;;;;22.98;14.55;;;;;;;;;;5014963;28;20033;-56
2022/05/03 05:18:03;;;;;;;23.95;13.52;;;;;;;;;;5014857;28;20029;-56
2022/05/03 05:20:31;;;;;;;20.30;13.27;;;;;;;;;;5014778;28;20033;-56
2022/05/03 05:22:57;;;;;;;23.70;13.88;;;;;;;;;;5014791;28;20164;-56
2022/05/03 05:25:24;;;;;;;20.00;12.90;;;;;;;;;;5014834;28;20057;-57
2022/05/03 05:27:51;;;;;;;21.95;12.95;;;;;;;;;;5014707;28;20034;-56
2022/05/03 05:30:18;;;;;;;20.95;13.40;;;;;;;;;;5014609;28;20022;-57
2022/05/03 05:32:45;;;;;;;20.00;13.55;;;;;;;;;;5024973;28;20045;-55
2022/05/03 05:35:12;;;;;;;18.83;12.18;;;;;;;;;;5034399;28;20075;-56
2022/05/03 05:37:39;;;;;;;19.65;11.05;;;;;;;;;;5034379;28;20022;-56
2022/05/03 05:40:07;;;;;;;16.63;11.07;;;;;;;;;;5034264;28;20022;-57
2022/05/03 05:42:33;;;;;;;17.63;11.93;;;;;;;;;;5034224;28;20030;-57
2022/05/03 05:45:01;;;;;;;19.67;11.68;;;;;;;;;;5033134;28;20029;-57
2022/05/03 05:47:28;;;;;;;15.90;10.68;;;;;;;;;;5034175;28;20148;-54
2022/05/03 05:49:55;;;;;;;19.33;11.88;;;;;;;;;;5034022;28;20479;-57
2022/05/03 05:55:07;;;;;;;19.10;10.77;;;;;;;;;;5034073;28;20099;-56
2022/05/03 05:57:35;;;;;;;18.25;11.30;;;;;;;;;;5034018;28;20028;-57
2022/05/03 06:00:02;;;;;;;16.40;9.95;;;;;;;;;;5033835;28;20032;-57
2022/05/03 06:02:29;;;;;;;15.95;10.52;;;;;;;;;;5034042;28;20036;-56
2022/05/03 06:04:56;;;;;;;17.63;11.32;;;;;;;;;;5033898;28;20564;-56
2022/05/03 06:07:23;;;;;;;14.45;10.45;;;;;;;;;;5033721;28;20033;-57
2022/05/03 06:09:51;;;;;;;16.08;10.60;;;;;;;;;;5033593;28;20021;-57
2022/05/03 06:12:18;;;;;;;16.00;10.43;;;;;;;;;;5033766;28;20061;-57
2022/05/03 06:14:45;;;;;;;16.92;10.73;;;;;;;;;;5033640;28;20108;-56
2022/05/03 06:17:12;;;;;;;13.68;9.50;;;;;;;;;;5033607;28;20025;-56
2022/05/03 06:19:39;;;;;;;17.17;10.40;;;;;;;;;;5033491;28;20403;-57
2022/05/03 06:22:06;;;;;;;17.52;10.27;;;;;;;;;;5033555;28;20033;-56
2022/05/03 06:24:33;;;;;;;15.75;9.68;;;;;;;;;;5033500;28;20029;-56
2022/05/03 06:27:00;;;;;;;15.27;10.13;;;;;;;;;;5015543;28;20034;-56
2022/05/03 06:29:27;;;;;;;13.80;9.15;;;;;;;;;;5033433;28;20033;-56
2022/05/03 06:31:54;;;;;;;17.33;9.10;;;;;;;;;;5162392;22;20410;-68
2022/05/03 06:34:21;;;;;;;13.43;8.70;;;;;;;;;;4993153;28;20042;-68
2022/05/03 06:39:53;;;;;;;14.98;8.57;;;;;;;;;;4914443;29;20532;-68
2022/05/03 06:42:20;;;;;;;14.63;9.07;;;;;;;;;;4972118;28;20149;-68
2022/05/03 06:44:47;;;;;;;15.02;9.25;;;;;;;;;;4974077;28;20018;-68
2022/05/03 06:47:14;;;;;;;12.43;8.23;;;;;;;;;;4973857;28;20034;-68
2022/05/03 06:49:43;;;;;;;9.80;8.02;;;;;;;;;;4973897;28;20027;-68
2022/05/03 06:52:10;;;;;;;16.05;8.35;;;;;;;;;;4973787;28;20484;-69
2022/05/03 06:54:37;;;;;;;11.27;8.48;;;;;;;;;;4956491;28;20023;-68
2022/05/03 06:57:04;;;;;;;13.00;8.48;;;;;;;;;;4956127;28;20122;-68
2022/05/03 06:59:31;;;;;;;12.88;9.10;;;;;;;;;;4974064;28;20019;-68
2022/05/03 07:01:58;;;;;;;10.32;7.50;;;;;;;;;;4973772;28;20031;-68
2022/05/03 07:04:25;;;;;;;11.07;7.88;;;;;;;;;;4973777;28;20025;-68
2022/05/03 07:06:52;;;;;;;11.25;7.78;;;;;;;;;;4973576;28;20132;-68
2022/05/03 07:09:19;;;;;;;11.32;7.32;;;;;;;;;;4973597;28;20094;-68
2022/05/03 07:11:46;;;;;;;11.13;7.63;;;;;;;;;;4973815;28;20023;-68
2022/05/03 07:14:15;;;;;;;15.15;7.97;;;;;;;;;;4973657;28;20583;-68
2022/05/03 07:16:42;;;;;;;10.27;7.55;;;;;;;;;;4973581;28;20034;-68
2022/05/03 07:24:39;;;;;;;12.00;7.68;;;;;;;;;;4973565;28;20034;-68
2022/05/03 07:27:07;;;;;;;10.13;7.38;;;;;;;;;;4956041;28;20026;-68
2022/05/03 07:29:35;;;;;;;9.75;6.90;;;;;;;;;;4986392;28;20034;-68
2022/05/03 07:32:02;;;;;;;8.93;6.80;;;;;;;;;;5012391;28;20460;-68
2022/05/03 07:34:29;;;;;;;8.70;6.55;;;;;;;;;;5012734;28;20026;-68
2022/05/03 07:36:55;;;;;;;10.13;7.78;;;;;;;;;;5012699;28;20498;-68
2022/05/03 07:39:22;;;;;;;9.90;7.20;;;;;;;;;;5012669;28;20025;-68
2022/05/03 07:41:49;;;;;;;9.32;7.03;;;;;;;;;;4994881;28;20507;-68
2022/05/03 07:44:16;;;;;;;10.38;6.80;;;;;;;;;;5012650;28;20026;-68
2022/05/03 07:46:43;;;;;;;12.68;7.65;;;;;;;;;;5012864;28;20084;-68
2022/05/03 07:49:11;;;;;;;10.43;6.72;;;;;;;;;;5012570;28;20438;-68
2022/05/03 07:51:41;;;;;;;8.70;6.50;;;;;;;;;;5010792;28;20460;-68
2022/05/03 07:54:09;;;;;;;8.70;6.20;;;;;;;;;;4986805;28;20039;-68
2022/05/03 07:56:36;;;;;;;9.90;6.65;;;;;;;;;;4989604;28;20038;-67
2022/05/03 07:59:06;;;;;;;9.50;6.43;;;;;;;;;;4987199;28;20031;-68
2022/05/03 08:01:33;;;;;;;8.27;6.03;;;;;;;;;;4992343;28;20041;-68
2022/05/03 08:04:00;;;;;;;10.88;6.40;;;;;;;;;;4974968;28;20031;-68
2022/05/03 08:06:28;;;;;;;10.63;6.80;;;;;;;;;;4992265;28;20038;-68
2022/05/03 08:08:56;;;;;;;8.65;5.75;;;;;;;;;;4994202;28;20042;-68
2022/05/03 08:11:24;;;;;;;9.25;6.20;;;;;;;;;;4996162;28;20034;-68
2022/05/03 08:13:53;;;;;;;9.07;6.18;;;;;;;;;;4996207;28;20037;-68
2022/05/03 08:16:22;;;;;;;10.25;7.07;;;;;;;;;;4996173;28;20042;-68
2022/05/03 08:18:49;;;;;;;7.38;5.68;;;;;;;;;;4978617;28;20550;-68
2022/05/03 08:21:17;;;;;;;8.05;5.45;;;;;;;;;;4993607;28;20035;-68
2022/05/03 08:23:44;;;;;;;8.57;5.90;;;;;;;;;;4996092;28;20046;-68
2022/05/03 08:26:11;;;;;;;9.93;5.75;;;;;;;;;;4978465;28;20038;-68
2022/05/03 08:28:39;;;;;;;8.13;6.38;;;;;;;;;;4978422;28;20027;-68
2022/05/03 08:31:07;;;;;;;6.45;5.55;;;;;;;;;;4995848;28;20034;-68
2022/05/03 08:33:35;;;;;;;7.25;5.47;;;;;;;;;;4995712;28;20522;-68
2022/05/03 08:36:02;;;;;;;7.85;6.07;;;;;;;;;;4995881;28;20049;-68
2022/05/03 08:43:59;;;;;;;7.60;5.57;;;;;;;;;;4995739;28;20105;-68
2022/05/03 08:46:26;;;;;;;6.43;5.15;;;;;;;;;;4995663;28;20038;-68
2022/05/03 08:49:00;;;;;;;7.78;5.47;;;;;;;;;;4995525;28;20065;-68
2022/05/03 08:51:31;;;;;;;8.30;5.78;;;;;;;;;;4995522;28;20026;-68
2022/05/03 08:54:01;;;;;;;7.63;5.63;;;;;;;;;;4995505;28;20524;-68
2022/05/03 08:56:30;;;;;;;6.45;5.03;;;;;;;;;;4995493;28;20093;-68
2022/05/03 08:58:57;;;;;;;7.00;5.00;;;;;;;;;;4995391;28;20042;-68
2022/05/03 09:01:24;;;;;;;6.32;4.93;;;;;;;;;;4995365;28;20113;-67
2022/05/03 09:07:17;;;;;;;5.93;4.68;;;;;;;;;;4991130;28;20080;-68
2022/05/03 09:09:44;;;;;;;;;;;;;;;;;;4995923;28;20050;-68
2022/05/03 09:12:22;;;;;;;6.63;4.95;;;;;;;;;;4992741;28;20299;-68
2022/05/03 09:14:49;;;;;;;7.20;4.78;;;;;;;;;;4993366;28;20470;-68
2022/05/03 09:17:34;;;;;;;6.40;4.72;;;;;;;;;;4995335;28;20093;-68
2022/05/03 09:23:46;;;;;;;6.72;4.25;;;;;;;;;;4995131;28;20034;-68
2022/05/03 09:25:37;;;;;;;6.43;4.72;;;;;;;;;;4995399;28;20049;-70
2022/05/03 09:28:07;;;;;;;6.85;4.80;;;;;;;;;;4995117;28;20061;-69
2022/05/03 09:30:34;;;;;;;5.85;4.38;;;;;;;;;;4995063;28;20085;-69
2022/05/03 09:33:01;;;;;;;8.23;4.78;;;;;;;;;;4994922;28;20097;-69
2022/05/03 09:35:32;;;;;;;6.05;4.80;;;;;;;;;;4995081;28;20548;-69
2022/05/03 09:38:01;;;;;;;8.48;4.55;;;;;;;;;;4994534;28;20082;-69
2022/05/03 09:40:29;;;;;;;5.68;4.15;;;;;;;;;;4994744;28;20049;-68
2022/05/03 09:42:56;;;;;;;6.70;4.78;;;;;;;;;;4994788;28;20037;-69
2022/05/03 09:45:25;;;;;;;7.13;4.05;;;;;;;;;;4994695;28;20073;-69
2022/05/03 09:47:53;;;;;;;5.88;4.18;;;;;;;;;;4994852;28;20042;-69
2022/05/03 09:50:27;;;;;;;9.23;3.97;;;;;;;;;;4994704;28;20030;-61
2022/05/03 09:52:54;;;;;;;5.10;3.97;;;;;;;;;;4990704;28;20125;-68
2022/05/03 09:55:29;;;;;;;6.88;3.78;;;;;;;;;;4992504;28;20057;-65
2022/05/03 09:57:57;;;;;;;8.10;4.38;;;;;;;;;;4992221;28;20034;-66
2022/05/03 10:00:24;;;;;;;8.02;3.60;;;;;;;;;;4993008;28;20034;-67
2022/05/03 10:02:51;;;;;;;5.13;3.70;;;;;;;;;;4993882;28;20022;-67
2022/05/03 10:08:35;;;;;;;4.00;3.00;;;;;;;;;;4993153;28;20081;-66
2022/05/03 10:11:02;;;;;;;8.48;3.85;;;;;;;;;;4992525;28;20089;-66
2022/05/03 10:13:29;;;;;;;6.85;3.42;;;;;;;;;;4993311;28;20392;-66
2022/05/03 10:21:42;;;;;;;6.75;3.10;;;;;;;;;;4993036;28;20593;-66
2022/05/03 10:24:10;;;;;;;8.75;3.55;;;;;;;;;;4992954;28;20084;-66
2022/05/03 10:26:56;;;;;;;7.63;3.90;;;;;;;;;;4993578;28;20484;-66
2022/05/03 10:29:25;;;;;;;6.82;4.13;;;;;;;;;;4975956;28;20129;-66
2022/05/03 10:32:04;;;;;;;7.63;3.72;;;;;;;;;;4992933;28;20026;-67
2022/05/03 10:34:43;;;;;;;5.00;3.42;;;;;;;;;;4993689;28;20084;-67
2022/05/03 10:37:11;;;;;;;6.15;3.30;;;;;;;;;;4993576;28;20049;-58
2022/05/03 10:39:51;;;;;;;5.88;3.40;;;;;;;;;;4993683;28;20030;-59
2022/05/03 10:42:22;;;;;;;7.60;3.70;;;;;;;;;;4993261;28;20034;-56
2022/05/03 10:44:55;;;;;;;7.28;3.38;;;;;;;;;;4993423;28;20075;-58
2022/05/03 10:47:39;;;;;;;6.63;3.42;;;;;;;;;;4993407;28;20033;-57
2022/05/03 10:50:12;;;;;;;5.82;3.60;;;;;;;;;;4993514;28;20080;-57
2022/05/03 10:52:59;;;;;;;7.40;3.47;;;;;;;;;;4993338;28;20062;-58
2022/05/03 10:55:28;;;;;;;7.60;3.63;;;;;;;;;;4980148;28;20124;-57
2022/05/03 10:58:13;;;;;;;10.55;3.67;;;;;;;;;;4990474;28;20038;-55
2022/05/03 11:01:00;;;;;;;6.68;3.65;;;;;;;;;;4993049;28;20030;-58
2022/05/03 11:03:27;;;;;;;7.43;3.33;;;;;;;;;;4980167;28;20132;-56
2022/05/03 11:06:13;;;;;;;9.32;3.15;;;;;;;;;;4992825;28;20056;-58
2022/05/03 11:11:46;;;;;;;10.85;2.75;;;;;;;;;;4991344;28;20043;-59
2022/05/03 11:16:47;;;;;;;90.68;7.72;;;;;;;;;;4992276;28;20033;-61
2022/05/03 11:19:15;;;;;;;129.88;12.20;;;;;;;;;;4992238;28;20045;-60
2022/05/03 11:21:43;;;;;;;63.63;5.47;;;;;;;;;;4991998;28;20496;-61
2022/05/03 11:24:23;;;;;;;76.95;7.15;;;;;;;;;;4991258;28;20030;-61
2022/05/03 11:26:51;;;;;;;51.65;6.25;;;;;;;;;;4992082;28;20042;-55
2022/05/03 11:29:19;;;;;;;90.57;10.10;;;;;;;;;;4987427;28;20431;-59
2022/05/03 11:31:49;;;;;;;77.82;7.40;;;;;;;;;;4991568;28;20503;-61
2022/05/03 11:34:18;;;;;;;32.65;6.22;;;;;;;;;;4971593;28;20497;-49
2022/05/03 11:36:50;;;;;;;38.55;5.70;;;;;;;;;;4971965;28;20043;-55
2022/05/03 11:39:21;;;;;;;34.85;5.80;;;;;;;;;;4972502;28;20043;-48
2022/05/03 11:41:48;;;;;;;34.75;5.68;;;;;;;;;;4972092;28;20055;-48
2022/05/03 11:44:16;;;;;;;32.33;5.25;;;;;;;;;;4974646;28;20378;-50
2022/05/03 11:46:44;;;;;;;157.88;12.98;;;;;;;;;;4961388;28;20117;-53
2022/05/03 11:49:12;;;;;;;84.47;8.68;;;;;;;;;;4978146;28;20078;-57
2022/05/03 11:57:23;;;;;;;82.20;7.85;;;;;;;;;;4996043;28;20040;-47
2022/05/03 11:59:51;;;;;;;76.28;9.13;;;;;;;;;;4995591;28;20030;-49
2022/05/03 12:02:19;;;;;;;95.18;11.68;;;;;;;;;;4995804;28;20030;-46
2022/05/03 12:05:06;;;;;;;98.10;12.00;;;;;;;;;;4995744;28;20404;-50
2022/05/03 12:07:36;;;;;;;99.53;12.98;;;;;;;;;;4993533;28;20042;-51
2022/05/03 12:10:23;;;;;;;106.35;15.93;;;;;;;;;;4995296;28;20388;-49
2022/05/03 12:13:08;;;;;;;105.28;14.35;;;;;;;;;;4982442;28;20038;-50
2022/05/03 12:15:37;;;;;;;90.70;14.02;;;;;;;;;;4995730;28;20510;-51
2022/05/03 12:18:04;;;;;;;75.53;11.73;;;;;;;;;;4996136;28;20539;-49
2022/05/03 12:20:46;;;;;;;100.40;12.52;;;;;;;;;;4995171;28;20465;-48
2022/05/03 12:23:17;;;;;;;78.88;12.35;;;;;;;;;;4995898;28;20122;-47
2022/05/03 12:25:45;;;;;;;84.22;12.60;;;;;;;;;;4994981;28;20061;-49
2022/05/03 12:28:12;;;;;;;73.57;11.45;;;;;;;;;;4991442;28;20130;-47
2022/05/03 12:30:40;;;;;;;68.60;10.85;;;;;;;;;;4976574;28;20035;-48
2022/05/03 12:33:08;;;;;;;72.68;11.50;;;;;;;;;;4984281;28;20053;-50
2022/05/03 12:35:37;;;;;;;67.03;10.85;;;;;;;;;;4994833;28;20029;-52
2022/05/03 12:38:23;;;;;;;75.40;10.07;;;;;;;;;;4995586;28;20034;-49
2022/05/03 12:40:51;;;;;;;54.80;9.23;;;;;;;;;;4995120;28;20428;-50
2022/05/03 12:43:21;;;;;;;65.00;10.68;;;;;;;;;;4994128;28;20038;-52
2022/05/03 12:46:05;;;;;;;53.10;9.27;;;;;;;;;;4995857;28;20118;-48
2022/05/03 12:48:33;;;;;;;52.08;7.97;;;;;;;;;;4994776;28;20084;-49
2022/05/03 12:51:01;;;;;;;60.10;9.40;;;;;;;;;;4995426;28;20030;-46
2022/05/03 12:53:29;;;;;;;53.53;9.02;;;;;;;;;;4994655;28;20076;-51
2022/05/03 12:55:57;;;;;;;55.55;9.38;;;;;;;;;;4994703;28;20041;-50
2022/05/03 12:58:27;;;;;;;52.53;8.15;;;;;;;;;;4995012;28;20481;-55
2022/05/03 13:00:54;;;;;;;50.10;8.35;;;;;;;;;;4994828;28;20110;-54
2022/05/03 13:03:25;;;;;;;54.05;7.68;;;;;;;;;;4994855;28;20389;-49
2022/05/03 13:05:54;;;;;;;50.88;9.15;;;;;;;;;;4994260;28;20042;-50
2022/05/03 13:08:21;;;;;;;47.63;7.63;;;;;;;;;;4994429;28;20096;-50
2022/05/03 13:10:49;;;;;;;54.97;8.10;;;;;;;;;;4994744;28;20039;-48
2022/05/03 13:13:18;;;;;;;32.05;7.93;;;;;;;;;;4995137;28;20030;-51
2022/05/03 13:15:45;;;;;;;44.85;8.38;;;;;;;;;;4975996;28;20435;-55
2022/05/03 13:18:12;;;;;;;41.67;8.98;;;;;;;;;;4992639;28;20239;-52
2022/05/03 13:20:40;;;;;;;28.73;9.48;;;;;;;;;;4993362;28;20049;-49
2022/05/03 13:23:07;;;;;;;35.38;9.27;;;;;;;;;;4994269;28;20080;-53
2022/05/03 13:25:34;;;;;;;35.90;8.85;;;;;;;;;;4994298;28;20085;-52
2022/05/03 13:28:01;;;;;;;37.45;9.52;;;;;;;;;;4994253;28;20034;-47
2022/05/03 13:30:28;;;;;;;32.13;9.50;;;;;;;;;;4994267;28;20035;-49
2022/05/03 13:32:55;;;;;;;28.85;8.73;;;;;;;;;;4994122;28;20042;-51
2022/05/03 13:40:52;;;;;;;23.30;6.10;;;;;;;;;;4993156;28;20092;-52
2022/05/03 13:43:19;;;;;;;21.88;4.93;;;;;;;;;;4992180;28;20031;-53
2022/05/03 13:45:46;;;;;;;22.17;4.20;;;;;;;;;;4994364;28;20556;-50
2022/05/03 13:48:13;;;;;;;19.92;3.53;;;;;;;;;;4993756;28;20058;-53
2022/05/03 13:50:40;;;;;;;16.83;4.28;;;;;;;;;;4994479;28;20478;-48
2022/05/03 13:53:09;;;;;;;20.30;4.82;;;;;;;;;;4993432;28;20049;-50
2022/05/03 13:55:39;;;;;;;17.55;4.28;;;;;;;;;;4994235;28;20026;-48
2022/05/03 13:58:10;;;;;;;16.55;3.58;;;;;;;;;;4994023;28;20029;-51
2022/05/03 14:00:39;;;;;;;103.82;18.20;;;;;;;;;;4993430;28;20464;-50
2022/05/03 14:03:12;;;;;;;38.92;7.10;;;;;;;;;;4993758;28;20131;-54
2022/05/03 14:05:40;;;;;;;35.10;5.78;;;;;;;;;;4999086;28;20049;-56
2022/05/03 14:08:10;;;;;;;30.00;5.63;;;;;;;;;;5012450;28;20030;-53
2022/05/03 14:10:44;;;;;;;28.65;4.43;;;;;;;;;;5012758;28;20026;-51
2022/05/03 14:13:11;;;;;;;21.00;3.85;;;;;;;;;;5012028;28;20034;-51
2022/05/03 14:15:38;;;;;;;25.20;4.47;;;;;;;;;;5012522;28;20112;-56
2022/05/03 14:18:05;;;;;;;15.82;4.05;;;;;;;;;;5011730;28;20072;-54
2022/05/03 14:20:32;;;;;;;16.13;2.90;;;;;;;;;;5012399;28;20057;-54
2022/05/03 14:22:59;;;;;;;22.40;4.28;;;;;;;;;;5011830;28;20506;-56
2022/05/03 14:25:27;;;;;;;17.38;4.32;;;;;;;;;;5012520;28;20037;-55
2022/05/03 14:27:54;;;;;;;19.15;4.53;;;;;;;;;;5011205;28;20038;-54
2022/05/03 14:30:21;;;;;;;17.88;4.10;;;;;;;;;;4990821;28;20101;-53
2022/05/03 14:32:48;;;;;;;26.75;3.78;;;;;;;;;;4992202;28;20108;-55
2022/05/03 14:35:16;;;;;;;33.72;4.78;;;;;;;;;;4992696;28;20029;-52
2022/05/03 14:37:43;;;;;;;27.42;5.18;;;;;;;;;;4991676;28;21154;-56
2022/05/03 14:40:11;;;;;;;29.88;4.78;;;;;;;;;;4992058;28;20033;-56
2022/05/03 14:42:40;;;;;;;24.08;4.97;;;;;;;;;;4992680;28;20427;-55
2022/05/03 14:45:08;;;;;;;19.80;3.33;;;;;;;;;;4992435;28;20030;-56
2022/05/03 14:47:35;;;;;;;19.58;3.08;;;;;;;;;;4991753;28;20045;-56
2022/05/03 14:50:03;;;;;;;23.88;3.60;;;;;;;;;;4992774;28;20428;-53
2022/05/03 14:52:30;;;;;;;30.38;2.97;;;;;;;;;;4991508;28;20034;-57
2022/05/03 14:54:57;;;;;;;19.02;2.55;;;;;;;;;;4992060;28;20042;-56
2022/05/03 15:02:54;;;;;;;31.38;4.38;;;;;;;;;;4992325;28;20038;-56
2022/05/03 15:05:23;;;;;;;39.67;5.70;;;;;;;;;;4992005;28;20026;-52
2022/05/03 15:07:50;;;;;;;42.13;7.38;;;;;;;;;;4991750;28;20548;-56
2022/05/03 15:10:18;;;;;;;41.28;10.77;;;;;;;;;;4991178;28;20114;-53
2022/05/03 15:12:45;;;;;;;41.70;8.70;;;;;;;;;;4992335;28;20026;-55
2022/05/03 15:15:16;;;;;;;39.13;13.82;;;;;;;;;;4991410;28;20073;-56
2022/05/03 15:17:46;;;;;;;19.05;6.65;;;;;;;;;;4991521;28;20038;-53
2022/05/03 15:20:18;;;;;;;34.80;6.63;;;;;;;;;;4991678;28;20037;-56
2022/05/03 15:25:31;;;;;;;35.30;11.35;;;;;;;;;;4992235;28;20060;-48
2022/05/03 15:27:58;;;;;;;57.97;19.65;;;;;;;;;;4991155;28;20042;-54
2022/05/03 15:30:26;;;;;;;48.25;23.13;;;;;;;;;;4991775;28;20057;-54
2022/05/03 15:32:53;;;;;;;61.85;23.38;;;;;;;;;;4991734;28;20050;-56
2022/05/03 15:35:20;;;;;;;52.95;25.67;;;;;;;;;;4990390;28;20041;-55
2022/05/03 15:37:47;;;;;;;51.90;23.65;;;;;;;;;;4990648;28;20031;-56
2022/05/03 15:40:14;;;;;;;46.25;23.38;;;;;;;;;;4991322;28;20038;-57
2022/05/03 15:42:42;;;;;;;51.28;22.33;;;;;;;;;;4972299;28;20461;-55
2022/05/03 15:45:10;;;;;;;53.05;22.23;;;;;;;;;;4990552;28;20125;-55